createdAt,value
2019-04-16T00:02:00.280Z,27.90
2019-04-16T00:04:53.657Z,28.70
2019-04-16T00:07:48.932Z,28.43
2019-04-16T00:10:37.305Z,28.27
2019-04-16T00:13:13.569Z,28.40
2019-04-16T00:15:42.879Z,27.87
2019-04-16T00:18:12.173Z,27.10
2019-04-16T00:20:57.386Z,27.77
2019-04-16T00:23:46.828Z,27.27
2019-04-16T00:26:16.271Z,26.73
2019-04-16T00:28:45.616Z,26.37
2019-04-16T00:31:15.036Z,27.43
2019-04-16T00:33:44.363Z,28.60
2019-04-16T00:36:15.377Z,25.80
2019-04-16T00:38:44.629Z,25.93
2019-04-16T00:41:13.879Z,26.63
2019-04-16T00:43:44.248Z,25.43
2019-04-16T00:46:13.509Z,25.70
2019-04-16T00:48:42.752Z,26.90
2019-04-16T00:51:12.085Z,26.17
2019-04-16T00:53:41.371Z,25.83
2019-04-16T00:56:13.435Z,26.93
2019-04-16T00:58:42.557Z,25.40
2019-04-16T01:01:11.905Z,26.03
2019-04-16T01:03:41.234Z,27.17
2019-04-16T01:06:10.526Z,25.80
2019-04-16T01:08:53.577Z,26.67
2019-04-16T01:11:10.919Z,26.50
2019-04-16T01:13:40.296Z,26.17
2019-04-16T01:16:09.693Z,26.30
2019-04-16T01:18:39.389Z,27.07
2019-04-16T01:21:08.820Z,27.27
2019-04-16T01:23:38.055Z,26.63
2019-04-16T01:26:07.476Z,26.27
2019-04-16T01:28:41.147Z,26.50
2019-04-16T01:31:36.288Z,25.40
2019-04-16T01:34:18.159Z,26.93
2019-04-16T01:37:18.338Z,28.27
2019-04-16T01:39:49.486Z,25.80
2019-04-16T01:42:23.373Z,26.57
2019-04-16T01:44:49.887Z,26.47
2019-04-16T01:47:19.243Z,26.13
2019-04-16T01:49:48.630Z,27.03
2019-04-16T01:52:18.912Z,28.67
2019-04-16T01:54:51.403Z,28.57
2019-04-16T01:57:19.911Z,27.30
2019-04-16T01:59:49.290Z,27.90
2019-04-16T02:02:18.673Z,27.63
2019-04-16T02:04:48.517Z,26.77
2019-04-16T02:07:18.955Z,27.17
2019-04-16T02:09:48.319Z,28.07
2019-04-16T02:12:17.692Z,26.80
2019-04-16T02:14:47.320Z,28.63
2019-04-16T02:17:18.092Z,29.13
2019-04-16T02:19:47.531Z,27.10
2019-04-16T02:22:16.908Z,26.33
2019-04-16T02:24:47.816Z,27.30
2019-04-16T02:27:18.868Z,26.20
2019-04-16T02:29:48.346Z,27.77
2019-04-16T02:32:17.647Z,27.53
2019-04-16T02:34:47.052Z,27.13
2019-04-16T02:37:16.541Z,27.53
2019-04-16T02:39:48.808Z,26.70
2019-04-16T02:42:16.982Z,27.87
2019-04-16T02:44:49.844Z,27.33
2019-04-16T02:47:17.479Z,26.43
2019-04-16T02:49:46.897Z,26.03
2019-04-16T02:52:33.817Z,27.77
2019-04-16T02:55:25.162Z,26.90
2019-04-16T02:58:00.275Z,27.53
2019-04-16T03:00:38.771Z,27.73
2019-04-16T03:03:11.476Z,27.03
2019-04-16T03:05:43.427Z,28.20
2019-04-16T03:08:13.147Z,26.07
2019-04-16T03:10:44.661Z,27.40
2019-04-16T03:13:13.637Z,26.20
2019-04-16T03:16:06.278Z,25.53
2019-04-16T03:18:48.064Z,26.43
2019-04-16T03:21:17.626Z,26.87
2019-04-16T03:23:47.075Z,26.43
2019-04-16T03:26:18.051Z,26.00
2019-04-16T03:28:47.613Z,26.90
2019-04-16T03:31:22.368Z,25.80
2019-04-16T03:33:50.291Z,26.27
2019-04-16T03:36:19.079Z,25.73
2019-04-16T03:38:48.454Z,26.70
2019-04-16T03:41:17.851Z,27.13
2019-04-16T03:43:47.243Z,26.37
2019-04-16T03:46:16.570Z,27.03
2019-04-16T03:48:45.919Z,25.60
2019-04-16T03:51:15.301Z,25.13
2019-04-16T03:53:46.489Z,26.03
2019-04-16T03:56:15.645Z,25.37
2019-04-16T03:58:45.057Z,26.03
2019-04-16T04:01:15.429Z,26.53
2019-04-16T04:03:45.033Z,25.77
2019-04-16T04:06:14.451Z,26.33
2019-04-16T04:08:48.018Z,26.83
2019-04-16T04:11:14.736Z,26.17
2019-04-16T04:13:44.142Z,25.80
2019-04-16T04:16:13.633Z,26.87
2019-04-16T04:18:43.876Z,26.10
2019-04-16T04:21:13.311Z,26.80
2019-04-16T04:23:42.721Z,25.23
2019-04-16T04:26:12.146Z,25.37
2019-04-16T04:28:41.603Z,26.57
2019-04-16T04:31:11.004Z,25.63
2019-04-16T04:33:42.798Z,27.57
2019-04-16T04:36:11.862Z,27.63
2019-04-16T04:38:41.288Z,26.60
2019-04-16T04:41:10.712Z,26.27
2019-04-16T04:43:41.019Z,25.27
2019-04-16T04:46:14.769Z,26.97
2019-04-16T04:48:41.413Z,24.57
2019-04-16T04:51:10.875Z,27.03
2019-04-16T04:53:40.203Z,27.20
2019-04-16T04:56:09.670Z,25.27
2019-04-16T04:58:39.037Z,25.33
2019-04-16T05:01:09.578Z,26.77
2019-04-16T05:03:57.822Z,25.20
2019-04-16T05:06:33.507Z,25.23
2019-04-16T05:09:03.023Z,25.40
2019-04-16T05:11:32.445Z,26.30
2019-04-16T05:14:01.747Z,26.30
2019-04-16T05:16:31.542Z,25.73
2019-04-16T05:19:02.087Z,25.67
2019-04-16T05:21:31.443Z,25.77
2019-04-16T05:24:00.800Z,26.13
2019-04-16T05:26:30.107Z,25.80
2019-04-16T05:29:16.324Z,24.93
2019-04-16T05:31:42.681Z,25.57
2019-04-16T05:34:12.652Z,25.60
2019-04-16T05:36:46.211Z,26.03
2019-04-16T05:39:13.127Z,27.43
2019-04-16T05:41:42.467Z,27.07
2019-04-16T05:44:11.859Z,26.80
2019-04-16T05:46:44.415Z,27.63
2019-04-16T05:49:12.315Z,27.30
2019-04-16T05:51:41.680Z,26.50
2019-04-16T05:54:24.117Z,26.50
2019-04-16T05:56:55.673Z,26.63
2019-04-16T05:59:25.126Z,25.20
2019-04-16T06:02:02.667Z,26.77
2019-04-16T06:04:31.962Z,26.93
2019-04-16T06:07:04.791Z,26.83
2019-04-16T06:09:32.245Z,27.63
2019-04-16T06:12:01.538Z,24.50
2019-04-16T06:14:46.468Z,25.10
2019-04-16T06:17:47.005Z,25.63
2019-04-16T06:20:27.628Z,25.87
2019-04-16T06:23:08.658Z,24.80
2019-04-16T06:25:50.230Z,26.00
2019-04-16T06:28:37.224Z,27.33
2019-04-16T06:31:24.307Z,25.87
2019-04-16T06:34:11.294Z,25.60
2019-04-16T06:37:05.721Z,25.43
2019-04-16T06:39:45.138Z,26.40
2019-04-16T06:42:24.865Z,23.60
2019-04-16T06:44:55.909Z,25.30
2019-04-16T06:47:41.808Z,25.63
2019-04-16T06:50:32.827Z,25.13
2019-04-16T06:53:19.489Z,24.97
2019-04-16T06:55:56.632Z,23.47
2019-04-16T06:58:50.136Z,24.37
2019-04-16T07:01:27.236Z,24.10
2019-04-16T07:04:00.369Z,24.20
2019-04-16T07:06:48.675Z,25.03
2019-04-16T07:09:41.634Z,24.60
2019-04-16T07:12:26.978Z,24.03
2019-04-16T07:14:56.299Z,25.10
2019-04-16T07:17:25.678Z,26.97
2019-04-16T07:19:55.003Z,25.17
2019-04-16T07:22:24.421Z,26.50
2019-04-16T07:25:03.921Z,24.83
2019-04-16T07:27:43.461Z,25.53
2019-04-16T07:30:40.051Z,24.10
2019-04-16T07:33:18.419Z,25.17
2019-04-16T07:36:18.815Z,24.90
2019-04-16T07:39:28.845Z,24.17
2019-04-16T07:42:12.632Z,25.60
2019-04-16T07:44:55.506Z,25.60
2019-04-16T07:47:40.231Z,25.97
2019-04-16T07:50:38.658Z,27.70
2019-04-16T07:53:21.977Z,26.50
2019-04-16T07:55:56.971Z,26.17
2019-04-16T07:58:26.360Z,25.20
2019-04-16T08:00:56.023Z,24.93
2019-04-16T08:03:26.802Z,25.53
2019-04-16T08:05:56.464Z,26.03
2019-04-16T08:08:25.823Z,24.40
2019-04-16T08:10:55.209Z,25.00
2019-04-16T08:13:25.595Z,27.27
2019-04-16T08:15:56.755Z,25.10
2019-04-16T08:18:26.128Z,26.13
2019-04-16T08:21:02.375Z,28.47
2019-04-16T08:23:41.042Z,27.93
2019-04-16T08:26:13.294Z,26.00
2019-04-16T08:28:41.590Z,26.67
2019-04-16T08:31:15.547Z,25.07
2019-04-16T08:33:44.960Z,25.77
2019-04-16T08:36:14.261Z,25.23
2019-04-16T08:38:43.656Z,25.73
2019-04-16T08:41:13.400Z,25.53
2019-04-16T08:43:42.901Z,24.10
2019-04-16T08:46:12.435Z,25.20
2019-04-16T08:48:41.811Z,24.77
2019-04-16T08:51:11.271Z,22.90
2019-04-16T08:53:43.655Z,24.50
2019-04-16T08:56:12.117Z,24.00
2019-04-16T08:58:41.975Z,23.23
2019-04-16T09:01:15.427Z,23.47
2019-04-16T09:03:44.533Z,23.70
2019-04-16T09:06:14.280Z,24.40
2019-04-16T09:09:14.188Z,24.33
2019-04-16T09:11:42.415Z,25.40
2019-04-16T09:14:12.188Z,24.73
2019-04-16T09:17:03.885Z,24.93
2019-04-16T09:19:34.320Z,24.53
2019-04-16T09:22:03.697Z,24.20
2019-04-16T09:24:41.405Z,24.80
2019-04-16T09:27:28.444Z,24.67
2019-04-16T09:30:16.918Z,24.27
2019-04-16T09:33:04.554Z,25.70
2019-04-16T09:35:51.677Z,23.47
2019-04-16T09:38:33.456Z,24.43
2019-04-16T09:41:23.751Z,24.77
2019-04-16T09:43:57.231Z,23.83
2019-04-16T09:46:49.711Z,24.57
2019-04-16T09:49:00.056Z,24.80
2019-04-16T09:51:30.270Z,24.70
2019-04-16T09:53:59.816Z,24.10
2019-04-16T09:56:30.508Z,24.37
2019-04-16T09:59:17.089Z,26.07
2019-04-16T10:02:08.348Z,24.23
2019-04-16T10:04:37.730Z,23.43
2019-04-16T10:07:07.283Z,24.17
2019-04-16T10:09:36.744Z,26.17
2019-04-16T10:12:07.904Z,24.13
2019-04-16T10:14:37.493Z,24.93
2019-04-16T10:17:07.652Z,24.83
2019-04-16T10:19:37.037Z,22.60
2019-04-16T10:22:06.477Z,24.80
2019-04-16T10:24:53.455Z,25.07
2019-04-16T10:27:32.343Z,25.17
2019-04-16T10:30:00.632Z,25.97
2019-04-16T10:32:31.094Z,24.07
2019-04-16T10:35:00.459Z,24.50
2019-04-16T10:37:30.172Z,25.30
2019-04-16T10:40:10.787Z,24.90
2019-04-16T10:43:05.095Z,24.60
2019-04-16T10:45:52.063Z,24.13
2019-04-16T10:48:28.568Z,24.70
2019-04-16T10:51:19.801Z,25.77
2019-04-16T10:54:10.946Z,25.67
2019-04-16T10:56:58.398Z,24.43
2019-04-16T10:59:43.873Z,23.03
2019-04-16T11:02:38.460Z,24.77
2019-04-16T11:05:30.288Z,25.40
2019-04-16T11:08:00.376Z,24.10
2019-04-16T11:10:29.824Z,24.87
2019-04-16T11:12:59.197Z,26.63
2019-04-16T11:15:28.637Z,26.53
2019-04-16T11:17:58.077Z,25.20
2019-04-16T11:20:27.604Z,25.53
2019-04-16T11:22:57.121Z,23.73
2019-04-16T11:25:26.495Z,27.33
2019-04-16T11:27:55.938Z,26.70
2019-04-16T11:30:39.821Z,26.17
2019-04-16T11:33:09.656Z,25.37
2019-04-16T11:35:39.618Z,24.70
2019-04-16T11:38:09.035Z,24.93
2019-04-16T11:40:40.939Z,26.23
2019-04-16T11:43:10.453Z,25.00
2019-04-16T11:45:39.864Z,25.83
2019-04-16T11:48:09.221Z,25.90
2019-04-16T11:50:38.587Z,25.93
2019-04-16T11:53:08.017Z,23.97
2019-04-16T11:55:37.550Z,24.43
2019-04-16T11:58:12.658Z,24.87
2019-04-16T12:00:47.067Z,24.07
2019-04-16T12:03:20.967Z,24.07
2019-04-16T12:06:28.288Z,25.27
2019-04-16T12:09:11.932Z,24.87
2019-04-16T12:12:09.557Z,24.23
2019-04-16T12:15:16.086Z,23.73
2019-04-16T12:18:07.433Z,25.57
2019-04-16T12:20:44.638Z,25.63
2019-04-16T12:23:48.310Z,23.57
2019-04-16T12:26:26.812Z,23.20
2019-04-16T12:29:08.895Z,24.93
2019-04-16T12:31:50.945Z,24.80
2019-04-16T12:34:34.281Z,25.27
2019-04-16T12:37:15.297Z,27.03
2019-04-16T12:39:55.687Z,28.47
2019-04-16T12:42:46.799Z,25.40
2019-04-16T12:45:41.023Z,25.70
2019-04-16T12:48:22.466Z,26.00
2019-04-16T12:51:13.840Z,25.53
2019-04-16T12:54:05.057Z,28.67
2019-04-16T12:56:52.112Z,27.63
2019-04-16T12:59:29.531Z,26.83
2019-04-16T13:02:20.707Z,28.20
2019-04-16T13:05:00.788Z,28.00
2019-04-16T13:07:47.622Z,26.70
2019-04-16T13:10:45.011Z,26.87
2019-04-16T13:13:27.022Z,26.47
2019-04-16T13:16:21.480Z,27.23
2019-04-16T13:19:08.645Z,26.40
2019-04-16T13:21:44.988Z,26.97
2019-04-16T13:24:20.300Z,28.23
2019-04-16T13:26:56.092Z,26.67
2019-04-16T13:29:29.492Z,26.20
2019-04-16T13:31:57.784Z,28.97
2019-04-16T13:34:27.694Z,27.50
2019-04-16T13:36:59.686Z,27.67
2019-04-16T13:40:02.125Z,26.87
2019-04-16T13:42:31.696Z,26.27
2019-04-16T13:45:27.034Z,26.47
2019-04-16T13:47:56.066Z,27.03
2019-04-16T13:50:44.449Z,27.20
2019-04-16T13:53:47.855Z,26.83
2019-04-16T13:56:29.624Z,26.07
2019-04-16T13:59:31.181Z,27.27
2019-04-16T14:02:18.643Z,27.50
2019-04-16T14:04:47.441Z,27.73
2019-04-16T14:07:16.883Z,26.63
2019-04-16T14:09:46.349Z,25.90
2019-04-16T14:12:16.312Z,25.60
2019-04-16T14:14:49.462Z,27.33
2019-04-16T14:17:24.348Z,25.47
2019-04-16T14:19:53.752Z,26.87
2019-04-16T14:22:23.156Z,26.07
2019-04-16T14:24:52.652Z,28.03
2019-04-16T14:27:22.234Z,27.57
2019-04-16T14:29:51.549Z,28.97
2019-04-16T14:32:21.043Z,28.43
2019-04-16T14:34:55.670Z,27.40
2019-04-16T14:37:25.014Z,31.43
2019-04-16T14:40:00.175Z,27.77
2019-04-16T14:42:29.623Z,28.57
2019-04-16T14:45:07.485Z,27.77
2019-04-16T14:47:38.074Z,29.27
2019-04-16T14:50:08.437Z,26.80
2019-04-16T14:52:37.891Z,27.93
2019-04-16T14:55:12.498Z,27.83
2019-04-16T14:57:59.355Z,27.53
2019-04-16T15:00:50.910Z,28.53
2019-04-16T15:03:43.008Z,28.47
2019-04-16T15:06:17.009Z,27.67
2019-04-16T15:09:06.927Z,28.83
2019-04-16T15:11:47.265Z,26.43
2019-04-16T15:14:23.387Z,25.50
2019-04-16T15:17:00.471Z,26.40
2019-04-16T15:19:32.844Z,25.50
2019-04-16T15:22:30.956Z,24.50
2019-04-16T15:25:13.656Z,24.87
2019-04-16T15:28:17.339Z,30.60
2019-04-16T15:31:04.000Z,27.27
2019-04-16T15:33:44.350Z,25.70
2019-04-16T15:36:23.064Z,24.00
2019-04-16T15:39:09.867Z,28.37
2019-04-16T15:42:04.099Z,25.03
2019-04-16T15:44:40.648Z,24.00
2019-04-16T15:47:26.498Z,23.37
2019-04-16T15:50:04.400Z,24.80
2019-04-16T15:53:07.754Z,24.97
2019-04-16T15:56:08.167Z,24.13
2019-04-16T15:59:05.661Z,22.90
2019-04-16T16:01:54.028Z,23.97
2019-04-16T16:04:30.827Z,25.67
2019-04-16T16:07:02.922Z,24.07
2019-04-16T16:10:03.440Z,25.20
2019-04-16T16:12:33.736Z,25.73
2019-04-16T16:15:09.010Z,24.13
2019-04-16T16:17:36.644Z,26.87
2019-04-16T16:20:10.197Z,25.00
2019-04-16T16:22:38.342Z,24.63
2019-04-16T16:25:08.652Z,27.40
2019-04-16T16:27:41.691Z,27.50
2019-04-16T16:30:14.419Z,26.87
2019-04-16T16:32:42.613Z,27.70
2019-04-16T16:35:16.995Z,24.70
2019-04-16T16:37:43.353Z,24.10
2019-04-16T16:40:15.297Z,24.80
2019-04-16T16:42:44.387Z,26.27
2019-04-16T16:45:14.284Z,25.73
2019-04-16T16:47:43.638Z,25.40
2019-04-16T16:50:17.375Z,24.13
2019-04-16T16:53:01.886Z,23.03
2019-04-16T16:55:35.452Z,25.30
2019-04-16T16:58:18.009Z,25.97
2019-04-16T17:01:01.194Z,23.73
2019-04-16T17:03:46.632Z,25.23
2019-04-16T17:06:16.502Z,26.23
2019-04-16T17:08:47.875Z,25.53
2019-04-16T17:11:17.597Z,28.13
2019-04-16T17:13:47.052Z,27.43
2019-04-16T17:16:16.466Z,27.33
2019-04-16T17:18:47.626Z,31.63
2019-04-16T17:21:17.307Z,28.00
2019-04-16T17:23:46.740Z,27.60
2019-04-16T17:26:16.774Z,26.27
2019-04-16T17:28:46.155Z,27.63
2019-04-16T17:31:15.827Z,26.37
2019-04-16T17:33:45.189Z,26.57
2019-04-16T17:36:14.649Z,26.87
2019-04-16T17:38:44.019Z,30.27
2019-04-16T17:41:16.979Z,32.13
2019-04-16T17:44:03.193Z,29.73
2019-04-16T17:46:51.808Z,28.20
2019-04-16T17:49:38.633Z,27.50
2019-04-16T17:52:45.286Z,27.67
2019-04-16T17:55:36.875Z,31.40
2019-04-16T17:58:12.719Z,29.90
2019-04-16T18:01:10.234Z,29.50
2019-04-16T18:03:48.684Z,31.90
2019-04-16T18:06:30.244Z,30.83
2019-04-16T18:09:08.699Z,29.93
2019-04-16T18:12:06.215Z,30.70
2019-04-16T18:14:53.831Z,45.70
2019-04-16T18:17:28.674Z,47.83
2019-04-16T18:20:16.041Z,43.20
2019-04-16T18:23:03.078Z,35.13
2019-04-16T18:25:56.487Z,36.80
2019-04-16T18:28:27.440Z,37.00
2019-04-16T18:31:11.884Z,36.17
2019-04-16T18:33:49.104Z,36.20
2019-04-16T18:36:37.784Z,35.53
2019-04-16T18:39:37.213Z,41.10
2019-04-16T18:42:25.128Z,36.40
2019-04-16T18:45:24.648Z,35.90
2019-04-16T18:48:04.905Z,37.53
2019-04-16T18:50:31.006Z,37.43
2019-04-16T18:53:00.470Z,37.13
2019-04-16T18:55:33.824Z,35.30
2019-04-16T18:58:07.341Z,38.50
2019-04-16T19:00:52.815Z,37.73
2019-04-16T19:03:23.232Z,37.90
2019-04-16T19:05:52.733Z,38.17
2019-04-16T19:08:22.638Z,39.03
2019-04-16T19:10:52.805Z,37.50
2019-04-16T19:13:22.436Z,41.47
2019-04-16T19:15:52.987Z,39.07
2019-04-16T19:18:22.641Z,38.17
2019-04-16T19:20:52.668Z,38.80
2019-04-16T19:23:22.311Z,37.73
2019-04-16T19:25:54.732Z,39.60
2019-04-16T19:28:23.968Z,38.23
2019-04-16T19:30:53.586Z,40.33
2019-04-16T19:33:22.971Z,40.83
2019-04-16T19:35:52.415Z,43.10
2019-04-16T19:38:22.045Z,41.30
2019-04-16T19:40:51.823Z,40.33
2019-04-16T19:43:21.353Z,40.77
2019-04-16T19:45:50.715Z,40.77
2019-04-16T19:48:34.528Z,38.03
2019-04-16T19:50:51.091Z,41.23
2019-04-16T19:53:20.492Z,41.10
2019-04-16T19:55:49.745Z,41.97
2019-04-16T19:58:19.206Z,41.43
2019-04-16T20:00:48.530Z,44.00
2019-04-16T20:03:17.786Z,43.53
2019-04-16T20:05:47.156Z,43.43
2019-04-16T20:08:16.405Z,46.10
2019-04-16T20:10:48.737Z,46.00
2019-04-16T20:13:16.728Z,44.73
2019-04-16T20:15:46.007Z,44.27
2019-04-16T20:18:15.324Z,44.07
2019-04-16T20:20:47.080Z,44.63
2019-04-16T20:23:15.745Z,45.97
2019-04-16T20:25:45.110Z,44.70
2019-04-16T20:28:20.380Z,45.40
2019-04-16T20:30:49.736Z,43.30
2019-04-16T20:33:19.162Z,42.50
2019-04-16T20:35:50.526Z,45.83
2019-04-16T20:38:19.439Z,43.23
2019-04-16T20:40:48.736Z,43.70
2019-04-16T20:43:18.035Z,43.87
2019-04-16T20:45:47.405Z,42.90
2019-04-16T20:48:16.643Z,43.53
2019-04-16T20:50:46.306Z,43.80
2019-04-16T20:53:15.632Z,41.20
2019-04-16T20:55:47.430Z,42.93
2019-04-16T20:58:15.928Z,44.47
2019-04-16T21:00:47.240Z,45.37
2019-04-16T21:03:22.306Z,43.73
2019-04-16T21:05:57.839Z,45.07
2019-04-16T21:08:24.445Z,44.73
2019-04-16T21:10:50.207Z,45.23
2019-04-16T21:13:19.432Z,44.47
2019-04-16T21:15:48.651Z,47.27
2019-04-16T21:18:17.923Z,47.37
2019-04-16T21:20:50.816Z,44.10
2019-04-16T21:23:17.959Z,44.07
2019-04-16T21:25:47.328Z,44.83
2019-04-16T21:28:27.053Z,42.97
2019-04-16T21:31:00.370Z,46.00
2019-04-16T21:33:40.833Z,43.13
2019-04-16T21:36:11.208Z,44.57
2019-04-16T21:38:57.921Z,45.83
2019-04-16T21:41:28.549Z,45.77
2019-04-16T21:43:58.019Z,44.07
2019-04-16T21:46:27.385Z,45.80
2019-04-16T21:48:59.740Z,44.83
2019-04-16T21:51:27.469Z,45.77
2019-04-16T21:53:58.092Z,47.77
2019-04-16T21:56:27.642Z,45.87
2019-04-16T21:58:57.073Z,44.83
2019-04-16T22:01:36.836Z,47.87
2019-04-16T22:04:13.218Z,49.13
2019-04-16T22:06:40.543Z,48.20
2019-04-16T22:09:09.955Z,50.30
2019-04-16T22:11:43.242Z,49.33
2019-04-16T22:14:10.080Z,50.33
2019-04-16T22:16:39.396Z,50.20
2019-04-16T22:19:10.870Z,51.10
2019-04-16T22:21:42.805Z,50.87
2019-04-16T22:24:10.692Z,51.20
2019-04-16T22:26:39.957Z,53.13
2019-04-16T22:29:09.610Z,54.33
2019-04-16T22:31:38.858Z,53.20
2019-04-16T22:34:08.688Z,52.57
2019-04-16T22:36:38.044Z,53.13
2019-04-16T22:39:25.065Z,52.57
2019-04-16T22:42:00.016Z,55.07
2019-04-16T22:44:54.485Z,51.63
2019-04-16T22:47:28.544Z,54.70
2019-04-16T22:50:14.243Z,54.77
2019-04-16T22:52:28.630Z,56.17
2019-04-16T22:54:57.873Z,52.87
2019-04-16T22:57:27.038Z,54.97
2019-04-16T22:59:56.515Z,56.93
2019-04-16T23:02:28.333Z,54.30
2019-04-16T23:04:58.536Z,58.00
2019-04-16T23:07:28.408Z,58.67
2019-04-16T23:09:57.804Z,58.57
2019-04-16T23:12:28.251Z,57.27
2019-04-16T23:14:57.603Z,54.20
2019-04-16T23:17:27.128Z,54.80
2019-04-16T23:19:56.383Z,57.57
2019-04-16T23:22:25.553Z,54.30
2019-04-16T23:24:55.442Z,57.10
2019-04-16T23:27:25.537Z,55.03
2019-04-16T23:29:54.768Z,54.90
2019-04-16T23:32:27.430Z,57.80
2019-04-16T23:34:54.982Z,57.80
2019-04-16T23:37:24.215Z,58.17
2019-04-16T23:39:53.437Z,58.77
2019-04-16T23:42:22.736Z,57.50
2019-04-16T23:45:08.372Z,61.90
2019-04-16T23:48:14.169Z,58.97
2019-04-16T23:50:50.089Z,59.13
2019-04-16T23:53:24.251Z,60.20
2019-04-16T23:56:13.430Z,61.97
2019-04-16T23:59:04.089Z,62.43
